Time;durP1;ratioP1;P1;durP2;ratioP2;P2;SDS_P1;SDS_P2;PMS_P1;PMS_P2;Temp;Humidity;BMP_temperature;BMP_pressure;BME280_temperature;BME280_humidity;BME280_pressure;Samples;Min_cycle;Max_cycle;Signal;HPM_P1;HPM_P2
2022/06/14 00:01:38;;;;;;;1.20;1.20;;;23.00;66.90;;;;;;5069940;28;43903;-69
2022/06/14 00:04:06;;;;;;;1.30;1.30;;;22.80;67.20;;;;;;5069351;28;43867;-69
2022/06/14 00:06:34;;;;;;;1.30;1.30;;;22.70;67.60;;;;;;5068092;28;44855;-70
2022/06/14 00:09:02;;;;;;;1.47;1.47;;;22.60;67.90;;;;;;5069689;28;43922;-69
2022/06/14 00:11:32;;;;;;;1.40;1.40;;;22.60;68.20;;;;;;5069983;28;44018;-69
2022/06/14 00:14:02;;;;;;;1.50;1.50;;;22.50;68.30;;;;;;5068759;28;43922;-69
2022/06/14 00:16:31;;;;;;;1.40;1.40;;;22.40;68.50;;;;;;5069371;28;43958;-69
2022/06/14 00:19:01;;;;;;;1.20;1.20;;;22.40;68.60;;;;;;5062696;28;43962;-69
2022/06/14 00:21:29;;;;;;;1.30;1.30;;;22.40;68.80;;;;;;5069929;28;44016;-70
2022/06/14 00:23:57;;;;;;;1.23;1.23;;;22.30;68.80;;;;;;5062727;28;44250;-69
2022/06/14 00:26:25;;;;;;;1.50;1.50;;;22.30;68.90;;;;;;5062531;28;44007;-69
2022/06/14 00:28:53;;;;;;;1.40;1.40;;;22.30;69.00;;;;;;5061441;28;43984;-68
2022/06/14 00:31:23;;;;;;;1.40;1.40;;;22.30;69.00;;;;;;5063614;28;43923;-69
2022/06/14 00:33:52;;;;;;;1.50;1.50;;;22.30;69.10;;;;;;5067819;28;46216;-69
2022/06/14 00:36:22;;;;;;;1.40;1.40;;;22.30;69.10;;;;;;5067948;28;44855;-69
2022/06/14 00:38:50;;;;;;;1.30;1.27;;;22.30;69.10;;;;;;5069072;28;43345;-69
2022/06/14 00:41:29;;;;;;;1.23;1.23;;;22.20;69.10;;;;;;5069666;28;43961;-69
2022/06/14 00:43:57;;;;;;;1.30;1.30;;;22.20;69.60;;;;;;5068956;28;43961;-69
2022/06/14 00:46:27;;;;;;;1.57;1.57;;;22.30;70.10;;;;;;5068834;28;43909;-69
2022/06/14 00:49:00;;;;;;;1.20;1.20;;;22.40;69.70;;;;;;5068609;28;43966;-68
2022/06/14 00:51:30;;;;;;;1.23;1.23;;;22.60;69.10;;;;;;5069290;28;43959;-70
2022/06/14 00:54:02;;;;;;;1.20;1.20;;;22.70;68.60;;;;;;5068824;28;44061;-69
2022/06/14 00:56:33;;;;;;;1.40;1.40;;;22.90;68.10;;;;;;5067087;28;44730;-69
2022/06/14 00:59:02;;;;;;;1.17;1.17;;;23.10;67.60;;;;;;5068810;28;43962;-69
2022/06/14 01:01:34;;;;;;;1.10;1.10;;;23.20;67.00;;;;;;5069117;28;44057;-69
2022/06/14 01:04:05;;;;;;;1.30;1.30;;;23.40;66.70;;;;;;5068237;28;44704;-70
2022/06/14 01:06:38;;;;;;;1.20;1.20;;;23.50;66.20;;;;;;5068496;28;43841;-69
2022/06/14 01:09:07;;;;;;;1.20;1.20;;;23.60;65.90;;;;;;5068732;28;43988;-70
2022/06/14 01:11:38;;;;;;;1.20;1.20;;;23.60;65.50;;;;;;5068710;28;44199;-70
2022/06/14 01:14:07;;;;;;;1.10;1.10;;;23.70;65.50;;;;;;5061770;28;43851;-70
2022/06/14 01:16:39;;;;;;;1.30;1.30;;;23.60;65.40;;;;;;5062410;28;43979;-70
2022/06/14 01:19:12;;;;;;;1.40;1.40;;;23.50;65.90;;;;;;5068422;28;43406;-70
2022/06/14 01:21:40;;;;;;;1.20;1.20;;;23.30;66.40;;;;;;5068919;28;43458;-70
2022/06/14 01:24:09;;;;;;;1.20;1.20;;;23.10;66.90;;;;;;5068117;28;43786;-69
2022/06/14 01:26:37;;;;;;;1.03;1.03;;;22.90;67.00;;;;;;5067994;28;44148;-69
2022/06/14 01:29:05;;;;;;;1.23;1.23;;;22.80;67.30;;;;;;5068373;28;43959;-69
2022/06/14 01:31:34;;;;;;;1.13;1.13;;;22.70;67.70;;;;;;5068655;28;43952;-69
2022/06/14 01:34:04;;;;;;;1.20;1.20;;;22.60;68.00;;;;;;5066539;28;45895;-71
2022/06/14 01:36:34;;;;;;;1.10;1.10;;;22.50;68.20;;;;;;5068043;28;43416;-69
2022/06/14 01:39:05;;;;;;;1.00;1.00;;;22.40;68.30;;;;;;5068093;28;43810;-71
2022/06/14 01:41:45;;;;;;;1.03;1.03;;;22.40;68.50;;;;;;5068541;28;43976;-70
2022/06/14 01:44:22;;;;;;;1.00;1.00;;;22.40;68.70;;;;;;5068186;28;44846;-69
2022/06/14 01:46:56;;;;;;;1.10;1.10;;;22.30;68.70;;;;;;5067937;28;44013;-70
2022/06/14 01:52:19;;;;;;;1.10;1.10;;;22.30;69.00;;;;;;5064242;28;43853;-69
2022/06/14 01:54:53;;;;;;;1.20;1.20;;;22.20;68.90;;;;;;5067866;28;44985;-69
2022/06/14 01:57:28;;;;;;;1.13;1.13;;;22.20;69.00;;;;;;5068064;28;44226;-69
2022/06/14 02:00:00;;;;;;;1.17;1.17;;;22.20;69.00;;;;;;5066371;28;44060;-69
2022/06/14 02:02:39;;;;;;;1.20;1.20;;;22.20;69.10;;;;;;5064854;28;43481;-70
2022/06/14 02:05:10;;;;;;;1.17;1.17;;;22.20;69.10;;;;;;5061357;28;44006;-70
2022/06/14 02:07:50;;;;;;;1.20;1.20;;;22.20;69.80;;;;;;5067520;28;43350;-69
2022/06/14 02:10:20;;;;;;;1.20;1.20;;;22.30;69.90;;;;;;5067666;28;43377;-69
2022/06/14 02:12:56;;;;;;;1.00;1.00;;;22.40;69.40;;;;;;5067813;28;43849;-69
2022/06/14 02:15:30;;;;;;;1.10;1.10;;;22.60;69.00;;;;;;5066514;28;45117;-68
2022/06/14 02:18:01;;;;;;;1.13;1.13;;;22.70;68.40;;;;;;5067278;28;43989;-69
2022/06/14 02:20:34;;;;;;;0.90;0.90;;;22.90;68.70;;;;;;5067217;28;43951;-70
2022/06/14 02:23:04;;;;;;;1.07;1.07;;;23.10;67.40;;;;;;5066379;28;44026;-70
2022/06/14 02:25:34;;;;;;;1.00;1.00;;;23.20;67.70;;;;;;5067273;28;43940;-69
2022/06/14 02:28:06;;;;;;;0.90;0.90;;;23.40;66.50;;;;;;5066125;28;43984;-70
2022/06/14 02:30:43;;;;;;;1.00;1.00;;;23.50;66.60;;;;;;5060695;28;44077;-70
2022/06/14 02:33:13;;;;;;;1.23;1.23;;;23.60;65.70;;;;;;5067602;28;43395;-69
2022/06/14 02:35:42;;;;;;;1.00;1.00;;;23.60;65.50;;;;;;5066823;28;43967;-69
2022/06/14 02:38:12;;;;;;;1.00;1.00;;;23.50;65.50;;;;;;5067097;28;43463;-69
2022/06/14 02:40:45;;;;;;;1.10;1.10;;;23.40;66.10;;;;;;5067232;28;43912;-70
2022/06/14 02:43:17;;;;;;;1.10;1.10;;;23.20;66.50;;;;;;5067637;28;43404;-69
2022/06/14 02:45:47;;;;;;;0.90;0.90;;;23.00;66.90;;;;;;5065425;28;45422;-70
2022/06/14 02:48:16;;;;;;;1.00;1.00;;;22.80;67.00;;;;;;5066633;28;43985;-70
2022/06/14 02:50:47;;;;;;;1.23;1.10;;;22.70;67.40;;;;;;5066755;28;43366;-70
2022/06/14 02:53:17;;;;;;;1.00;1.00;;;22.60;67.70;;;;;;5067549;28;43967;-70
2022/06/14 02:55:47;;;;;;;0.90;0.90;;;22.50;68.00;;;;;;5066820;28;43979;-70
2022/06/14 02:58:19;;;;;;;1.17;1.17;;;22.40;68.20;;;;;;5066902;28;43888;-70
2022/06/14 03:00:49;;;;;;;1.10;1.10;;;22.40;68.50;;;;;;5067009;28;43969;-70
2022/06/14 03:03:20;;;;;;;1.00;1.00;;;22.30;68.60;;;;;;5067352;28;43944;-70
2022/06/14 03:05:50;;;;;;;1.03;1.03;;;22.30;68.70;;;;;;5067199;28;44421;-69
2022/06/14 03:08:20;;;;;;;0.93;0.93;;;22.20;68.80;;;;;;5066923;28;43961;-71
2022/06/14 03:10:57;;;;;;;1.10;1.10;;;22.20;68.90;;;;;;5067102;28;44043;-69
2022/06/14 03:13:30;;;;;;;1.10;1.10;;;22.20;69.00;;;;;;5066763;28;43292;-69
2022/06/14 03:16:02;;;;;;;1.10;1.10;;;22.20;69.10;;;;;;5066609;28;43961;-69
2022/06/14 03:18:34;;;;;;;1.03;1.03;;;22.20;69.10;;;;;;5066570;28;44007;-69
2022/06/14 03:21:07;;;;;;;0.90;0.90;;;22.20;69.10;;;;;;5066549;28;43935;-69
2022/06/14 03:23:41;;;;;;;0.90;0.90;;;22.10;69.00;;;;;;5066988;28;44063;-70
2022/06/14 03:26:13;;;;;;;1.00;1.00;;;22.10;69.00;;;;;;5059540;28;44094;-69
2022/06/14 03:28:44;;;;;;;0.90;0.90;;;22.10;69.60;;;;;;5066648;28;43928;-70
2022/06/14 03:31:15;;;;;;;0.90;0.90;;;22.20;69.80;;;;;;5066611;28;43891;-70
2022/06/14 03:33:45;;;;;;;1.07;1.07;;;22.30;69.20;;;;;;5066895;28;43927;-70
2022/06/14 03:36:14;;;;;;;1.13;1.13;;;22.50;68.90;;;;;;5066288;28;43794;-69
2022/06/14 03:38:43;;;;;;;1.00;1.00;;;22.70;68.30;;;;;;5065067;28;43975;-68
2022/06/14 03:41:13;;;;;;;1.07;1.07;;;22.90;67.90;;;;;;5066486;28;43836;-70
2022/06/14 03:43:42;;;;;;;1.10;1.10;;;23.10;68.10;;;;;;5066845;28;44098;-70
2022/06/14 03:46:13;;;;;;;1.40;1.40;;;23.20;66.90;;;;;;5059634;28;44967;-69
2022/06/14 03:48:42;;;;;;;1.17;1.17;;;23.40;66.50;;;;;;5059707;28;44014;-69
2022/06/14 03:51:13;;;;;;;1.53;1.43;;;23.40;66.00;;;;;;5059973;28;43949;-70
2022/06/14 03:54:03;;;;;;;2.37;1.80;;;23.50;65.60;;;;;;5066843;28;43931;-70
2022/06/14 03:56:44;;;;;;;3.17;1.90;;;23.60;65.30;;;;;;5066271;28;44806;-69
2022/06/14 03:59:21;;;;;;;2.47;1.80;;;23.60;65.30;;;;;;5066176;28;44086;-70
2022/06/14 04:01:51;;;;;;;4.13;2.60;;;23.40;65.80;;;;;;5066487;28;43463;-70
2022/06/14 04:04:29;;;;;;;3.97;2.37;;;23.20;66.30;;;;;;5060658;28;43987;-69
2022/06/14 04:07:00;;;;;;;3.17;2.03;;;23.00;66.70;;;;;;5061258;28;43568;-71
2022/06/14 04:09:37;;;;;;;2.60;2.40;;;22.80;66.80;;;;;;5066117;28;44021;-69
2022/06/14 04:12:08;;;;;;;2.67;2.43;;;22.70;67.20;;;;;;5065682;28;43936;-69
2022/06/14 04:14:45;;;;;;;2.87;2.63;;;22.60;67.60;;;;;;5066517;28;43931;-70
2022/06/14 04:17:19;;;;;;;3.83;2.63;;;22.40;67.90;;;;;;5066089;28;43955;-70
2022/06/14 04:20:00;;;;;;;4.20;2.70;;;22.30;68.20;;;;;;5065929;28;43872;-70
2022/06/14 04:22:33;;;;;;;3.73;2.67;;;22.30;68.40;;;;;;5065916;28;43460;-69
2022/06/14 04:25:05;;;;;;;4.03;2.77;;;22.20;68.60;;;;;;5066361;28;43970;-69
2022/06/14 04:27:36;;;;;;;4.30;2.73;;;22.20;68.70;;;;;;5065862;28;43844;-69
2022/06/14 04:30:10;;;;;;;4.53;3.33;;;22.20;68.90;;;;;;5065802;28;44005;-69
2022/06/14 04:32:42;;;;;;;2.80;2.57;;;22.10;68.90;;;;;;5065824;28;43962;-69
2022/06/14 04:35:13;;;;;;;4.13;2.97;;;22.10;69.00;;;;;;5066298;28;43992;-69
2022/06/14 04:37:43;;;;;;;3.60;2.87;;;22.10;69.10;;;;;;5067154;28;43892;-69
2022/06/14 04:40:14;;;;;;;4.97;3.03;;;22.10;69.10;;;;;;5069277;28;43904;-69
2022/06/14 04:42:45;;;;;;;4.90;3.40;;;22.10;69.10;;;;;;5069236;28;43980;-70
2022/06/14 04:45:16;;;;;;;4.63;3.17;;;22.10;69.20;;;;;;5068182;28;44004;-70
2022/06/14 04:47:46;;;;;;;4.63;3.00;;;22.10;69.10;;;;;;5067168;28;45426;-70
2022/06/14 04:50:16;;;;;;;4.63;3.20;;;22.00;69.10;;;;;;5068984;28;43864;-69
2022/06/14 04:52:47;;;;;;;3.40;3.10;;;22.00;69.40;;;;;;5069096;28;43936;-70
2022/06/14 04:55:17;;;;;;;5.20;3.53;;;22.10;69.90;;;;;;5069656;28;43935;-69
2022/06/14 04:57:47;;;;;;;4.97;3.70;;;22.20;69.50;;;;;;5068900;28;44969;-71
2022/06/14 05:00:19;;;;;;;4.23;3.43;;;22.40;69.10;;;;;;5062889;28;43933;-69
2022/06/14 05:02:49;;;;;;;3.93;3.53;;;22.60;68.70;;;;;;5068817;28;43932;-69
2022/06/14 05:05:19;;;;;;;6.03;3.60;;;22.80;68.10;;;;;;5069295;28;43845;-70
2022/06/14 05:07:48;;;;;;;4.10;3.57;;;23.00;67.50;;;;;;5068559;28;44022;-69
2022/06/14 05:10:17;;;;;;;3.70;3.30;;;23.10;67.70;;;;;;5068727;28;43943;-69
2022/06/14 05:12:48;;;;;;;5.00;3.67;;;23.20;66.40;;;;;;5068217;28;44342;-69
2022/06/14 05:15:20;;;;;;;3.97;3.17;;;23.30;66.10;;;;;;5069188;28;43867;-69
2022/06/14 05:17:49;;;;;;;3.60;3.30;;;23.40;65.80;;;;;;5068466;28;43881;-70
2022/06/14 05:20:19;;;;;;;3.37;3.07;;;23.50;65.50;;;;;;5068749;28;43893;-70
2022/06/14 05:22:49;;;;;;;4.20;3.60;;;23.50;65.20;;;;;;5068389;28;44352;-70
2022/06/14 05:25:17;;;;;;;3.73;3.40;;;23.40;65.40;;;;;;5069135;28;43399;-70
2022/06/14 05:27:50;;;;;;;3.57;3.33;;;23.30;66.00;;;;;;5068458;28;43547;-70
2022/06/14 05:30:35;;;;;;;3.80;3.50;;;23.10;66.50;;;;;;5068686;28;43859;-70
2022/06/14 05:33:09;;;;;;;3.40;3.10;;;22.90;66.90;;;;;;5061668;28;43367;-70
2022/06/14 05:35:39;;;;;;;3.57;3.27;;;22.70;67.00;;;;;;5062859;28;43936;-70
2022/06/14 05:38:16;;;;;;;3.53;3.23;;;22.60;67.40;;;;;;5067999;28;43600;-70
2022/06/14 05:40:52;;;;;;;3.47;3.27;;;22.40;67.60;;;;;;5068197;28;44082;-69
2022/06/14 05:43:31;;;;;;;3.83;3.53;;;22.40;68.00;;;;;;5068734;28;43951;-69
2022/06/14 05:46:06;;;;;;;3.73;3.27;;;22.30;68.30;;;;;;5068847;28;43897;-69
2022/06/14 05:48:37;;;;;;;3.17;2.97;;;22.20;68.40;;;;;;5067783;28;43909;-70
2022/06/14 05:51:05;;;;;;;3.50;3.30;;;22.20;68.60;;;;;;5066491;28;45075;-69
2022/06/14 05:53:35;;;;;;;3.10;2.90;;;22.10;68.70;;;;;;5067958;28;43357;-69
2022/06/14 05:56:07;;;;;;;3.00;2.80;;;22.10;68.80;;;;;;5068487;28;43979;-69
2022/06/14 05:58:36;;;;;;;3.30;3.10;;;22.10;68.90;;;;;;5061738;28;43914;-69
2022/06/14 06:01:07;;;;;;;3.30;3.00;;;22.10;69.00;;;;;;5062002;28;44120;-69
2022/06/14 06:03:39;;;;;;;3.50;3.30;;;22.10;69.00;;;;;;5067933;28;43912;-70
2022/06/14 06:06:09;;;;;;;3.63;3.33;;;22.10;69.10;;;;;;5068446;28;43936;-69
2022/06/14 06:08:40;;;;;;;3.10;2.90;;;22.10;69.10;;;;;;5067845;28;45145;-69
2022/06/14 06:11:09;;;;;;;3.03;2.87;;;22.00;69.70;;;;;;5067748;28;43838;-70
2022/06/14 06:13:41;;;;;;;3.30;3.10;;;22.00;69.00;;;;;;5066092;28;44297;-70
2022/06/14 06:16:12;;;;;;;3.00;2.77;;;22.00;69.50;;;;;;5068131;28;43902;-70
2022/06/14 06:18:42;;;;;;;3.33;3.03;;;22.10;69.70;;;;;;5067543;28;44018;-70
2022/06/14 06:21:16;;;;;;;3.00;2.90;;;22.20;70.10;;;;;;5066351;28;43964;-70
2022/06/14 06:23:46;;;;;;;3.13;3.00;;;22.40;69.10;;;;;;5067688;28;43391;-69
2022/06/14 06:26:14;;;;;;;3.23;2.97;;;22.60;68.60;;;;;;5068043;28;43986;-69
2022/06/14 06:28:44;;;;;;;3.17;3.03;;;22.70;68.70;;;;;;5067576;28;44958;-71
2022/06/14 06:31:15;;;;;;;3.30;3.10;;;22.90;67.40;;;;;;5067388;28;43379;-69
2022/06/14 06:33:45;;;;;;;3.20;3.00;;;23.10;67.10;;;;;;5067592;28;43967;-69
2022/06/14 06:36:30;;;;;;;3.50;3.20;;;23.20;66.40;;;;;;5067814;28;44011;-69
2022/06/14 06:39:10;;;;;;;2.73;2.63;;;23.30;66.10;;;;;;5067319;28;44656;-69
2022/06/14 06:41:51;;;;;;;3.17;3.00;;;23.40;65.70;;;;;;5067275;28;43959;-70
2022/06/14 06:44:23;;;;;;;3.07;2.87;;;23.40;65.40;;;;;;5067625;28;43891;-70
2022/06/14 06:46:57;;;;;;;2.77;2.60;;;23.30;65.80;;;;;;5067898;28;43407;-70
2022/06/14 06:49:29;;;;;;;2.97;2.60;;;23.20;66.40;;;;;;5067110;28;44805;-69
2022/06/14 06:52:01;;;;;;;3.03;2.90;;;23.00;66.60;;;;;;5060311;28;43413;-69
2022/06/14 06:54:32;;;;;;;3.47;3.17;;;22.80;66.90;;;;;;5060826;28;43987;-69
2022/06/14 06:57:02;;;;;;;2.70;2.60;;;22.60;67.90;;;;;;5065904;28;44229;-69
2022/06/14 06:59:32;;;;;;;3.00;2.90;;;22.50;67.60;;;;;;5066564;28;44875;-70
2022/06/14 07:02:03;;;;;;;2.67;2.57;;;22.30;67.80;;;;;;5066854;28;43769;-69
2022/06/14 07:07:20;;;;;;;3.03;2.93;;;22.20;68.40;;;;;;5067316;28;43900;-70
2022/06/14 07:09:49;;;;;;;2.63;2.50;;;22.10;68.50;;;;;;5065616;28;46270;-70
2022/06/14 07:12:19;;;;;;;2.80;2.70;;;22.10;68.70;;;;;;5066094;28;44023;-69
2022/06/14 07:14:49;;;;;;;3.03;2.83;;;22.10;68.80;;;;;;5065382;28;43848;-68
2022/06/14 07:17:20;;;;;;;2.50;2.40;;;22.10;68.90;;;;;;5067131;28;43443;-69
2022/06/14 07:19:51;;;;;;;2.90;2.80;;;22.10;69.00;;;;;;5066747;28;43765;-69
2022/06/14 07:22:22;;;;;;;3.00;2.90;;;22.00;69.00;;;;;;5065518;28;43922;-69
2022/06/14 07:24:56;;;;;;;2.83;2.73;;;22.00;69.00;;;;;;5066957;28;43948;-69
2022/06/14 07:27:45;;;;;;;2.50;2.40;;;22.00;69.10;;;;;;5063877;28;44346;-69
2022/06/14 07:30:16;;;;;;;2.90;2.80;;;22.00;69.10;;;;;;5065157;28;45516;-71
2022/06/14 07:32:48;;;;;;;2.77;2.67;;;22.00;69.10;;;;;;5066756;28;44168;-69
2022/06/14 07:35:17;;;;;;;2.83;2.73;;;22.00;69.30;;;;;;5066707;28;43946;-69
2022/06/14 07:37:47;;;;;;;3.07;2.87;;;22.00;69.70;;;;;;5066615;28;44230;-69
2022/06/14 07:40:36;;;;;;;2.50;2.40;;;22.10;69.60;;;;;;5066517;28;43821;-69
2022/06/14 07:43:06;;;;;;;2.70;2.60;;;22.30;69.20;;;;;;5066932;28;44249;-69
2022/06/14 07:45:36;;;;;;;2.43;2.33;;;22.50;68.80;;;;;;5066473;28;44027;-69
2022/06/14 07:48:08;;;;;;;2.30;2.20;;;22.70;68.30;;;;;;5066366;28;43999;-69
2022/06/14 07:50:39;;;;;;;2.50;2.40;;;22.80;67.70;;;;;;5066385;28;45126;-69
2022/06/14 07:53:10;;;;;;;2.47;2.27;;;23.00;67.20;;;;;;5066304;28;43928;-69
2022/06/14 07:55:40;;;;;;;2.70;2.60;;;23.20;66.60;;;;;;5066332;28;44013;-69
2022/06/14 07:58:10;;;;;;;2.20;2.10;;;23.30;66.20;;;;;;5066832;28;44006;-70
2022/06/14 08:03:30;;;;;;;2.50;2.40;;;23.50;65.70;;;;;;5066405;28;44022;-68
2022/06/14 08:05:58;;;;;;;2.30;2.20;;;23.50;65.30;;;;;;5059995;28;43967;-69
2022/06/14 08:08:29;;;;;;;2.57;2.40;;;23.40;65.60;;;;;;5060159;28;43992;-69
2022/06/14 08:11:06;;;;;;;2.57;2.40;;;23.30;66.20;;;;;;5060032;28;43909;-69
2022/06/14 08:13:35;;;;;;;2.20;2.10;;;23.10;66.50;;;;;;5068506;28;44344;-69
2022/06/14 08:16:03;;;;;;;2.10;2.10;;;22.90;66.70;;;;;;5069639;28;44043;-70
2022/06/14 08:18:35;;;;;;;2.10;2.10;;;22.70;66.90;;;;;;5070073;28;44416;-70
2022/06/14 08:21:05;;;;;;;2.30;2.20;;;22.50;67.30;;;;;;5069660;28;44898;-69
2022/06/14 08:23:35;;;;;;;2.20;2.10;;;22.40;67.70;;;;;;5067963;28;46365;-69
2022/06/14 08:26:05;;;;;;;2.20;2.20;;;22.30;68.00;;;;;;5069565;28;43985;-70
2022/06/14 08:28:36;;;;;;;2.27;2.17;;;22.20;68.20;;;;;;5069929;28;43881;-69
2022/06/14 08:31:06;;;;;;;2.27;2.17;;;22.20;68.40;;;;;;5069469;28;43912;-69
2022/06/14 08:33:36;;;;;;;2.30;2.20;;;22.10;68.50;;;;;;5069274;28;43945;-69
2022/06/14 08:36:07;;;;;;;1.90;1.90;;;22.10;68.70;;;;;;5069358;28;44005;-69
2022/06/14 08:38:37;;;;;;;2.10;2.10;;;22.10;68.80;;;;;;5069805;28;44007;-70
2022/06/14 08:41:13;;;;;;;1.90;1.90;;;22.00;68.90;;;;;;5069247;28;43795;-71
2022/06/14 08:43:44;;;;;;;2.00;2.00;;;22.00;69.00;;;;;;5069363;28;43903;-69
2022/06/14 08:46:20;;;;;;;2.33;2.30;;;22.00;69.00;;;;;;5069079;28;43457;-69
2022/06/14 08:49:12;;;;;;;2.00;2.00;;;22.00;69.10;;;;;;5069276;28;43995;-69
2022/06/14 08:51:58;;;;;;;2.00;2.00;;;22.00;69.20;;;;;;5069042;28;43905;-69
2022/06/14 08:55:00;;;;;;;2.00;2.00;;;21.90;69.20;;;;;;5062361;28;43958;-70
2022/06/14 08:57:58;;;;;;;2.00;2.00;;;21.90;69.20;;;;;;5069189;28;43286;-69
2022/06/14 09:00:33;;;;;;;2.10;2.10;;;21.90;69.30;;;;;;5067887;28;43943;-69
2022/06/14 09:03:19;;;;;;;2.13;2.13;;;21.90;70.00;;;;;;5068901;28;43778;-70
2022/06/14 09:05:58;;;;;;;1.93;1.93;;;22.10;69.80;;;;;;5068805;28;43958;-69
2022/06/14 09:09:03;;;;;;;1.83;1.83;;;22.30;69.30;;;;;;5062285;28;43896;-69
2022/06/14 09:11:54;;;;;;;2.03;1.93;;;22.50;68.90;;;;;;5069342;28;43415;-70
2022/06/14 09:15:09;;;;;;;2.00;2.00;;;22.70;68.20;;;;;;5038526;28;43612;-70
2022/06/14 09:18:02;;;;;;;2.00;2.00;;;22.90;67.60;;;;;;5068460;28;43939;-69
2022/06/14 09:20:37;;;;;;;1.77;1.77;;;23.10;67.00;;;;;;5068735;28;43351;-70
2022/06/14 09:23:18;;;;;;;1.80;1.80;;;23.20;66.70;;;;;;5068606;28;43801;-69
2022/06/14 09:25:59;;;;;;;2.00;2.00;;;23.30;66.30;;;;;;5066877;28;47077;-70
2022/06/14 09:28:54;;;;;;;2.00;1.90;;;23.30;65.90;;;;;;5068480;28;44054;-69
2022/06/14 09:31:28;;;;;;;1.87;1.87;;;23.20;66.20;;;;;;5068838;28;43938;-70
2022/06/14 09:34:34;;;;;;;1.63;1.63;;;23.00;66.70;;;;;;5062159;28;43954;-70
2022/06/14 09:37:25;;;;;;;1.73;1.73;;;22.80;67.00;;;;;;5067164;28;44003;-70
2022/06/14 09:40:24;;;;;;;1.93;1.93;;;22.60;67.30;;;;;;5058351;28;43952;-70
2022/06/14 09:43:17;;;;;;;1.80;1.80;;;22.40;67.80;;;;;;5068556;28;43762;-70
2022/06/14 09:46:03;;;;;;;1.83;1.83;;;22.20;68.10;;;;;;5068604;28;44000;-69
2022/06/14 09:48:40;;;;;;;2.17;2.00;;;22.10;68.50;;;;;;5067792;28;44025;-70
2022/06/14 09:51:29;;;;;;;1.70;1.60;;;22.10;68.80;;;;;;5068114;28;43415;-69
2022/06/14 09:54:24;;;;;;;1.90;1.90;;;22.00;69.00;;;;;;5068021;28;44085;-69
2022/06/14 09:57:08;;;;;;;1.60;1.60;;;22.00;69.20;;;;;;5068548;28;43778;-69
2022/06/14 09:59:51;;;;;;;1.80;1.80;;;21.90;69.20;;;;;;5068001;28;43912;-69
2022/06/14 10:02:24;;;;;;;1.63;1.63;;;21.90;69.30;;;;;;5067824;28;43923;-69
2022/06/14 10:05:01;;;;;;;1.70;1.70;;;21.90;69.40;;;;;;5067917;28;43975;-69
2022/06/14 10:07:41;;;;;;;1.60;1.60;;;21.90;69.50;;;;;;5068470;28;43956;-70
2022/06/14 10:10:30;;;;;;;1.80;1.80;;;21.90;69.50;;;;;;5067727;28;44841;-69
2022/06/14 10:13:19;;;;;;;1.77;1.77;;;21.90;69.60;;;;;;5065912;28;45715;-69
2022/06/14 10:15:52;;;;;;;1.70;1.70;;;21.80;69.50;;;;;;5067694;28;43950;-69
2022/06/14 10:18:28;;;;;;;1.60;1.60;;;21.80;69.50;;;;;;5062105;28;44124;-70
2022/06/14 10:20:58;;;;;;;1.73;1.73;;;21.80;70.00;;;;;;5067677;28;43938;-68
2022/06/14 10:23:50;;;;;;;1.80;1.80;;;21.90;70.90;;;;;;5067656;28;44040;-69
2022/06/14 10:30:01;;;;;;;1.93;1.90;;;22.30;69.40;;;;;;5066453;28;44010;-69
2022/06/14 10:32:51;;;;;;;1.60;1.60;;;22.50;68.60;;;;;;5057348;28;43623;-70
2022/06/14 10:35:21;;;;;;;1.53;1.53;;;22.70;68.00;;;;;;5066247;28;43999;-69
2022/06/14 10:38:05;;;;;;;1.63;1.63;;;22.90;67.60;;;;;;5067343;28;43928;-70
2022/06/14 10:40:45;;;;;;;1.60;1.60;;;23.00;67.10;;;;;;5061871;28;43893;-70
2022/06/14 10:43:18;;;;;;;1.70;1.70;;;23.20;66.70;;;;;;5067222;28;44707;-70
2022/06/14 10:46:04;;;;;;;2.00;2.00;;;23.20;66.40;;;;;;5067118;28;43974;-70
2022/06/14 10:49:02;;;;;;;1.60;1.60;;;23.30;66.20;;;;;;5067035;28;44066;-70
2022/06/14 10:51:42;;;;;;;1.70;1.70;;;23.30;66.00;;;;;;5054944;28;43959;-69
2022/06/14 10:54:12;;;;;;;1.40;1.40;;;23.10;66.40;;;;;;5067082;28;43955;-71
2022/06/14 10:57:15;;;;;;;1.63;1.63;;;22.90;66.90;;;;;;5067150;28;43964;-70
2022/06/14 11:00:08;;;;;;;1.70;1.70;;;22.70;67.10;;;;;;5004804;28;44031;-70
2022/06/14 11:02:50;;;;;;;1.60;1.60;;;22.50;67.50;;;;;;4997682;28;43902;-69
2022/06/14 11:05:22;;;;;;;1.60;1.60;;;22.40;68.00;;;;;;5050255;28;43959;-69
2022/06/14 11:08:03;;;;;;;1.67;1.67;;;22.20;68.30;;;;;;5066986;28;43955;-70
2022/06/14 11:10:52;;;;;;;1.60;1.60;;;22.10;68.70;;;;;;5067169;28;43912;-69
2022/06/14 11:13:29;;;;;;;1.63;1.63;;;22.10;69.00;;;;;;5067047;28;43823;-68
2022/06/14 11:16:01;;;;;;;1.53;1.53;;;22.00;69.10;;;;;;5066394;28;43839;-69
2022/06/14 11:18:43;;;;;;;1.70;1.70;;;22.00;69.30;;;;;;5066684;28;44493;-70
2022/06/14 11:21:22;;;;;;;1.80;1.80;;;21.90;69.30;;;;;;5065535;28;43885;-69
2022/06/14 11:23:55;;;;;;;1.57;1.57;;;21.90;69.50;;;;;;5067428;28;43919;-69
2022/06/14 11:26:26;;;;;;;1.60;1.60;;;21.90;69.60;;;;;;5066928;28;43932;-69
2022/06/14 11:28:56;;;;;;;1.37;1.37;;;21.90;69.60;;;;;;5065372;28;46061;-69
2022/06/14 11:31:26;;;;;;;1.20;1.20;;;21.90;69.70;;;;;;5067136;28;43485;-70
2022/06/14 11:34:08;;;;;;;1.80;1.70;;;21.80;69.60;;;;;;5067097;28;43921;-69
2022/06/14 11:36:48;;;;;;;1.70;1.70;;;21.80;69.70;;;;;;5066450;28;44006;-69
2022/06/14 11:39:28;;;;;;;1.70;1.70;;;21.80;69.70;;;;;;5066758;28;43824;-69
2022/06/14 11:41:56;;;;;;;1.50;1.50;;;21.80;69.80;;;;;;5066852;28;43365;-70
2022/06/14 11:44:37;;;;;;;1.40;1.40;;;21.80;69.80;;;;;;5067140;28;43913;-70
2022/06/14 11:47:11;;;;;;;1.30;1.30;;;21.80;70.10;;;;;;5062252;28;43930;-70
2022/06/14 11:49:41;;;;;;;1.50;1.50;;;21.90;70.50;;;;;;5064532;28;43965;-69
2022/06/14 11:52:22;;;;;;;1.50;1.50;;;22.10;70.20;;;;;;5068848;28;44286;-70
2022/06/14 11:54:55;;;;;;;1.57;1.57;;;22.20;69.60;;;;;;5070445;28;43902;-70
2022/06/14 11:57:26;;;;;;;1.57;1.57;;;22.40;69.10;;;;;;5070043;28;43934;-70
2022/06/14 12:00:13;;;;;;;1.30;1.30;;;22.60;68.70;;;;;;5070201;28;43845;-69
2022/06/14 12:03:09;;;;;;;1.37;1.37;;;22.80;68.20;;;;;;5066179;28;43892;-70
2022/06/14 12:05:42;;;;;;;1.50;1.50;;;22.90;67.50;;;;;;5068850;28;44075;-69
2022/06/14 12:08:20;;;;;;;1.37;1.37;;;23.10;67.10;;;;;;5069654;28;43750;-69
2022/06/14 12:10:51;;;;;;;1.40;1.40;;;23.20;66.80;;;;;;5069851;28;43441;-69
2022/06/14 12:13:47;;;;;;;1.47;1.47;;;23.20;66.40;;;;;;5069690;28;43312;-70
2022/06/14 12:16:16;;;;;;;1.70;1.70;;;23.20;66.40;;;;;;5047379;28;44324;-69
2022/06/14 12:18:48;;;;;;;1.40;1.40;;;23.00;66.60;;;;;;5069570;28;43926;-70
2022/06/14 12:21:33;;;;;;;1.40;1.40;;;22.90;67.20;;;;;;5069539;28;44022;-69
2022/06/14 12:24:04;;;;;;;1.43;1.43;;;22.60;67.30;;;;;;5069595;28;43873;-69
2022/06/14 12:26:35;;;;;;;1.40;1.40;;;22.50;67.70;;;;;;5063697;28;43786;-71
2022/06/14 12:29:07;;;;;;;1.50;1.50;;;22.30;68.00;;;;;;5063572;28;43985;-69
2022/06/14 12:31:48;;;;;;;1.40;1.40;;;22.20;68.30;;;;;;5069377;28;43295;-69
2022/06/14 12:34:20;;;;;;;1.50;1.50;;;22.10;68.60;;;;;;5067866;28;44027;-69
2022/06/14 12:37:01;;;;;;;1.40;1.40;;;22.10;68.90;;;;;;5068352;28;43476;-69
2022/06/14 12:39:32;;;;;;;1.63;1.63;;;22.00;69.10;;;;;;5069348;28;43950;-69
2022/06/14 12:42:03;;;;;;;1.50;1.50;;;22.00;69.20;;;;;;5067797;28;46319;-69
2022/06/14 12:44:45;;;;;;;1.40;1.40;;;22.00;69.30;;;;;;5069233;28;43974;-69
2022/06/14 12:47:15;;;;;;;1.40;1.40;;;21.90;69.30;;;;;;5064093;28;43833;-69
2022/06/14 12:49:45;;;;;;;1.40;1.40;;;21.90;69.40;;;;;;5069409;28;44079;-69
2022/06/14 12:52:16;;;;;;;1.60;1.60;;;21.90;69.50;;;;;;5068881;28;43332;-69
2022/06/14 12:54:53;;;;;;;1.60;1.60;;;21.90;69.50;;;;;;5069290;28;43944;-70
2022/06/14 12:57:25;;;;;;;1.40;1.40;;;21.90;69.60;;;;;;5069319;28;44037;-71
2022/06/14 12:59:57;;;;;;;1.50;1.50;;;21.80;69.60;;;;;;5068792;28;44782;-69
2022/06/14 13:02:29;;;;;;;1.47;1.47;;;21.80;69.60;;;;;;5068693;28;43927;-70
2022/06/14 13:05:00;;;;;;;1.40;1.40;;;21.80;69.60;;;;;;5069148;28;43960;-70
2022/06/14 13:07:42;;;;;;;1.30;1.30;;;21.80;69.70;;;;;;5069558;28;43460;-70
2022/06/14 13:10:24;;;;;;;1.30;1.30;;;21.90;70.40;;;;;;5068992;28;43766;-70
2022/06/14 13:13:01;;;;;;;1.10;1.10;;;22.00;70.30;;;;;;5068818;28;43955;-70
2022/06/14 13:15:32;;;;;;;1.57;1.57;;;22.10;69.70;;;;;;5068858;28;43956;-69
2022/06/14 13:18:10;;;;;;;1.30;1.30;;;22.30;69.30;;;;;;5069164;28;44046;-70
2022/06/14 13:20:42;;;;;;;1.33;1.33;;;22.50;68.90;;;;;;5068582;28;44804;-70
2022/06/14 13:23:29;;;;;;;1.30;1.30;;;22.60;68.20;;;;;;5068634;28;43986;-69
2022/06/14 13:26:20;;;;;;;1.47;1.47;;;22.80;67.70;;;;;;5068012;28;43945;-70
2022/06/14 13:29:09;;;;;;;1.20;1.20;;;23.00;67.30;;;;;;5068958;28;43933;-71
2022/06/14 13:31:54;;;;;;;1.40;1.40;;;23.10;67.00;;;;;;5078503;28;44758;-69
2022/06/14 13:34:29;;;;;;;1.33;1.33;;;23.20;66.60;;;;;;5068571;28;43956;-69
2022/06/14 13:37:05;;;;;;;1.30;1.30;;;23.30;66.20;;;;;;5068388;28;44126;-70
2022/06/14 13:39:38;;;;;;;1.30;1.30;;;23.30;66.70;;;;;;5068912;28;43951;-69